Las Vegas, NV (89134)

5:02 PM PDT on August 28, 2015 (GMT -0700)
Wild Blue Yonder - Desert Shores | | Change Station
CLOSE
Current Station
Personal Weather Station
Location: Las Vegas, NV
Elevation: 2414 ft
Nearby Weather Stations

Elev 2414 ft 36.21 °N, 115.26 °W | Updated 5 seconds ago

Clear
Clear
100.7 °F
Feels Like 98 °F
N
0.0
Wind Variable Wind from SE
Gusts 2.0 mph

Today
High -- | Low -- °F
--% Chance of Precip.
Yesterday
High -- | Low -- °F
Precip. -- in
6:09 AM 7:14 PM
Waxing Gibbous, 99% visible
Pressure 29.73 in
Visibility 10.0 miles
Clouds Scattered Clouds 12000 ft
Scattered Clouds 25000 ft
Heat Index 98 °F
Dew Point 52 °F
Humidity 20%
Rainfall 0.00 in
Snow Depth Not available.
UV 2 out of 12
Pollen 6.10 out of 12
Air Quality Not available.
Flu Activity Not available.
METAR KLAS 282356Z 09008KT 10SM SCT120 SCT250 41/08 A2982 RMK AO2 SLP066 ACC ALQDS T04060083 10406 20356 56024
Pressure 29.73 in
Visibility 10.0 miles
Clouds Scattered Clouds 12000 ft
Scattered Clouds 25000 ft
Heat Index 98 °F
Dew Point 52 °F
Humidity 20%
Rainfall 0.00 in
Snow Depth Not available.
UV 2 out of 12
Pollen 6.10 out of 12
Air Quality Not available.
Flu Activity Not available.
METAR KLAS 282356Z 09008KT 10SM SCT120 SCT250 41/08 A2982 RMK AO2 SLP066 ACC ALQDS T04060083 10406 20356 56024

10-Day Weather Forecast

×

Almanac

Astronomy

Aug. 28, 2015 Rise Set
Actual Time
Civil Twilight
Nautical Twilight
Astronomical Twilight
Moon
Length of Visible Light
Length of Day
Tomorrow will be .
, % of the Moon is Illuminated

Today's Extremes

State Highs State Lows

Community

WunderPhotos

Upload Photos

1,850,538 photos uploaded!

WunderBlogs® & News

Nearby

Air Quality

  Air Quality AQ Index Pollutant
Not available.

Snow Depth

Station Depth Elevation

Earthquake Activity

City Distance Mag. Time & Date
Minimum magnitude displayed is 2.5.

Coastal Water Temperatures

Place Temperature

Stations

Nearby Weather Stations

Station Location Temp. Windchill Dew Point Humidity Wind Precip. Elev Updated Type